sensor_id;sensor_type;location;lat;lon;timestamp;P1;durP1;ratioP1;P2;durP2;ratioP2
71166;SDS011;58864;45.928;20.078;2023-02-12T00:00:07;42.43;;;17.70;;
71166;SDS011;58864;45.928;20.078;2023-02-12T00:02:32;45.38;;;17.33;;
71166;SDS011;58864;45.928;20.078;2023-02-12T00:04:56;43.63;;;17.87;;
71166;SDS011;58864;45.928;20.078;2023-02-12T00:07:21;44.17;;;17.33;;
71166;SDS011;58864;45.928;20.078;2023-02-12T00:09:45;43.40;;;17.60;;
71166;SDS011;58864;45.928;20.078;2023-02-12T00:12:10;44.37;;;18.20;;
71166;SDS011;58864;45.928;20.078;2023-02-12T00:14:36;48.87;;;18.77;;
71166;SDS011;58864;45.928;20.078;2023-02-12T00:17:01;42.95;;;17.38;;
71166;SDS011;58864;45.928;20.078;2023-02-12T00:19:25;41.30;;;17.67;;
71166;SDS011;58864;45.928;20.078;2023-02-12T00:21:50;48.73;;;17.93;;
71166;SDS011;58864;45.928;20.078;2023-02-12T00:24:14;44.83;;;18.13;;
71166;SDS011;58864;45.928;20.078;2023-02-12T00:26:38;45.53;;;18.53;;
71166;SDS011;58864;45.928;20.078;2023-02-12T00:29:03;43.73;;;17.93;;
71166;SDS011;58864;45.928;20.078;2023-02-12T00:31:28;42.43;;;17.00;;
71166;SDS011;58864;45.928;20.078;2023-02-12T00:33:57;45.00;;;18.13;;
71166;SDS011;58864;45.928;20.078;2023-02-12T00:36:24;46.20;;;17.73;;
71166;SDS011;58864;45.928;20.078;2023-02-12T00:38:51;45.22;;;17.27;;
71166;SDS011;58864;45.928;20.078;2023-02-12T00:41:16;51.27;;;18.87;;
71166;SDS011;58864;45.928;20.078;2023-02-12T00:43:41;46.97;;;17.65;;
71166;SDS011;58864;45.928;20.078;2023-02-12T00:46:05;53.70;;;19.30;;
71166;SDS011;58864;45.928;20.078;2023-02-12T00:48:31;48.22;;;18.65;;
71166;SDS011;58864;45.928;20.078;2023-02-12T00:50:56;51.97;;;19.42;;
71166;SDS011;58864;45.928;20.078;2023-02-12T00:53:21;49.23;;;18.17;;
71166;SDS011;58864;45.928;20.078;2023-02-12T00:55:45;44.77;;;17.17;;
71166;SDS011;58864;45.928;20.078;2023-02-12T00:58:10;51.17;;;18.10;;
71166;SDS011;58864;45.928;20.078;2023-02-12T01:00:34;50.57;;;18.13;;
71166;SDS011;58864;45.928;20.078;2023-02-12T01:02:59;49.43;;;18.97;;
71166;SDS011;58864;45.928;20.078;2023-02-12T01:05:23;45.93;;;17.40;;
71166;SDS011;58864;45.928;20.078;2023-02-12T01:07:49;52.37;;;18.30;;
71166;SDS011;58864;45.928;20.078;2023-02-12T01:10:14;47.22;;;17.27;;
71166;SDS011;58864;45.928;20.078;2023-02-12T01:12:39;47.17;;;17.63;;
71166;SDS011;58864;45.928;20.078;2023-02-12T01:15:03;46.80;;;18.03;;
71166;SDS011;58864;45.928;20.078;2023-02-12T01:17:28;53.60;;;19.13;;
71166;SDS011;58864;45.928;20.078;2023-02-12T01:19:55;45.60;;;18.00;;
71166;SDS011;58864;45.928;20.078;2023-02-12T01:22:21;47.67;;;17.63;;
71166;SDS011;58864;45.928;20.078;2023-02-12T01:24:45;42.30;;;16.50;;
71166;SDS011;58864;45.928;20.078;2023-02-12T01:27:10;43.50;;;17.30;;
71166;SDS011;58864;45.928;20.078;2023-02-12T01:29:34;43.60;;;17.13;;
71166;SDS011;58864;45.928;20.078;2023-02-12T01:31:59;40.33;;;16.55;;
71166;SDS011;58864;45.928;20.078;2023-02-12T01:34:23;39.57;;;16.13;;
71166;SDS011;58864;45.928;20.078;2023-02-12T01:36:47;39.50;;;16.77;;
71166;SDS011;58864;45.928;20.078;2023-02-12T01:39:12;36.30;;;15.43;;
71166;SDS011;58864;45.928;20.078;2023-02-12T01:41:38;37.37;;;16.33;;
71166;SDS011;58864;45.928;20.078;2023-02-12T01:44:05;37.83;;;15.95;;
71166;SDS011;58864;45.928;20.078;2023-02-12T01:46:36;39.35;;;16.23;;
71166;SDS011;58864;45.928;20.078;2023-02-12T01:49:02;38.72;;;15.50;;
71166;SDS011;58864;45.928;20.078;2023-02-12T01:51:28;34.50;;;14.73;;
71166;SDS011;58864;45.928;20.078;2023-02-12T01:53:53;36.85;;;13.98;;
71166;SDS011;58864;45.928;20.078;2023-02-12T01:56:18;33.63;;;14.32;;
71166;SDS011;58864;45.928;20.078;2023-02-12T01:58:44;32.67;;;14.10;;
71166;SDS011;58864;45.928;20.078;2023-02-12T02:01:11;36.20;;;14.70;;
71166;SDS011;58864;45.928;20.078;2023-02-12T02:03:38;35.75;;;15.25;;
71166;SDS011;58864;45.928;20.078;2023-02-12T02:06:07;33.83;;;14.25;;
71166;SDS011;58864;45.928;20.078;2023-02-12T02:08:34;31.77;;;14.10;;
71166;SDS011;58864;45.928;20.078;2023-02-12T02:10:59;34.87;;;14.53;;
71166;SDS011;58864;45.928;20.078;2023-02-12T02:13:23;37.38;;;14.27;;
71166;SDS011;58864;45.928;20.078;2023-02-12T02:16:12;34.40;;;14.07;;
71166;SDS011;58864;45.928;20.078;2023-02-12T02:25:25;35.70;;;14.25;;
71166;SDS011;58864;45.928;20.078;2023-02-12T02:27:41;32.15;;;13.38;;
71166;SDS011;58864;45.928;20.078;2023-02-12T02:30:20;34.30;;;13.90;;
71166;SDS011;58864;45.928;20.078;2023-02-12T02:33:12;33.13;;;13.50;;
71166;SDS011;58864;45.928;20.078;2023-02-12T02:35:52;49.42;;;19.20;;
71166;SDS011;58864;45.928;20.078;2023-02-12T02:40:57;36.35;;;14.50;;
71166;SDS011;58864;45.928;20.078;2023-02-12T02:43:27;30.93;;;12.80;;
71166;SDS011;58864;45.928;20.078;2023-02-12T02:45:54;30.23;;;12.43;;
71166;SDS011;58864;45.928;20.078;2023-02-12T02:48:23;33.53;;;13.48;;
71166;SDS011;58864;45.928;20.078;2023-02-12T02:50:52;29.58;;;13.35;;
71166;SDS011;58864;45.928;20.078;2023-02-12T02:53:25;34.55;;;13.15;;
71166;SDS011;58864;45.928;20.078;2023-02-12T02:55:54;30.40;;;13.23;;
71166;SDS011;58864;45.928;20.078;2023-02-12T02:58:21;30.13;;;11.80;;
71166;SDS011;58864;45.928;20.078;2023-02-12T03:01:23;29.05;;;11.90;;
71166;SDS011;58864;45.928;20.078;2023-02-12T03:09:22;28.57;;;11.70;;
71166;SDS011;58864;45.928;20.078;2023-02-12T03:11:53;30.25;;;11.90;;
71166;SDS011;58864;45.928;20.078;2023-02-12T03:14:30;31.88;;;11.82;;
71166;SDS011;58864;45.928;20.078;2023-02-12T03:16:57;29.05;;;12.50;;
71166;SDS011;58864;45.928;20.078;2023-02-12T03:19:25;28.70;;;11.60;;
71166;SDS011;58864;45.928;20.078;2023-02-12T03:21:57;29.63;;;12.30;;
71166;SDS011;58864;45.928;20.078;2023-02-12T03:27:20;32.55;;;12.88;;
71166;SDS011;58864;45.928;20.078;2023-02-12T03:29:50;32.42;;;13.05;;
71166;SDS011;58864;45.928;20.078;2023-02-12T03:37:32;37.33;;;13.88;;
71166;SDS011;58864;45.928;20.078;2023-02-12T03:45:28;27.90;;;11.40;;
71166;SDS011;58864;45.928;20.078;2023-02-12T03:51:37;28.85;;;11.82;;
71166;SDS011;58864;45.928;20.078;2023-02-12T03:53:30;27.25;;;11.82;;
71166;SDS011;58864;45.928;20.078;2023-02-12T03:55:57;29.38;;;11.13;;
71166;SDS011;58864;45.928;20.078;2023-02-12T03:58:25;28.03;;;11.23;;
71166;SDS011;58864;45.928;20.078;2023-02-12T04:00:52;29.30;;;11.70;;
71166;SDS011;58864;45.928;20.078;2023-02-12T04:03:17;27.65;;;11.30;;
71166;SDS011;58864;45.928;20.078;2023-02-12T04:05:41;25.20;;;10.90;;
71166;SDS011;58864;45.928;20.078;2023-02-12T04:08:06;25.40;;;11.40;;
71166;SDS011;58864;45.928;20.078;2023-02-12T04:10:52;25.83;;;11.23;;
71166;SDS011;58864;45.928;20.078;2023-02-12T04:13:27;32.08;;;12.50;;
71166;SDS011;58864;45.928;20.078;2023-02-12T04:16:02;27.40;;;11.40;;
71166;SDS011;58864;45.928;20.078;2023-02-12T04:18:41;26.83;;;11.43;;
71166;SDS011;58864;45.928;20.078;2023-02-12T04:29:33;26.30;;;11.55;;
71166;SDS011;58864;45.928;20.078;2023-02-12T04:32:07;24.52;;;10.68;;
71166;SDS011;58864;45.928;20.078;2023-02-12T04:34:53;26.80;;;11.03;;
71166;SDS011;58864;45.928;20.078;2023-02-12T04:37:41;28.85;;;11.50;;
71166;SDS011;58864;45.928;20.078;2023-02-12T04:40:09;26.98;;;11.55;;
71166;SDS011;58864;45.928;20.078;2023-02-12T04:42:40;26.33;;;11.23;;
71166;SDS011;58864;45.928;20.078;2023-02-12T04:45:11;30.88;;;12.48;;
71166;SDS011;58864;45.928;20.078;2023-02-12T04:47:37;31.10;;;12.77;;
71166;SDS011;58864;45.928;20.078;2023-02-12T04:50:02;27.60;;;10.95;;
71166;SDS011;58864;45.928;20.078;2023-02-12T04:52:27;32.30;;;13.68;;
71166;SDS011;58864;45.928;20.078;2023-02-12T04:54:51;30.73;;;13.00;;
71166;SDS011;58864;45.928;20.078;2023-02-12T04:57:16;34.13;;;13.80;;
71166;SDS011;58864;45.928;20.078;2023-02-12T04:59:40;28.13;;;12.60;;
71166;SDS011;58864;45.928;20.078;2023-02-12T05:02:04;26.17;;;12.30;;
71166;SDS011;58864;45.928;20.078;2023-02-12T05:04:29;29.30;;;12.82;;
71166;SDS011;58864;45.928;20.078;2023-02-12T05:06:53;26.50;;;11.30;;
71166;SDS011;58864;45.928;20.078;2023-02-12T05:09:18;28.90;;;12.03;;
71166;SDS011;58864;45.928;20.078;2023-02-12T05:11:43;29.70;;;12.77;;
71166;SDS011;58864;45.928;20.078;2023-02-12T05:14:08;33.30;;;14.37;;
71166;SDS011;58864;45.928;20.078;2023-02-12T05:16:32;33.30;;;14.57;;
71166;SDS011;58864;45.928;20.078;2023-02-12T05:18:57;31.23;;;13.23;;
71166;SDS011;58864;45.928;20.078;2023-02-12T05:21:21;28.83;;;12.47;;
71166;SDS011;58864;45.928;20.078;2023-02-12T05:23:45;30.10;;;11.73;;
71166;SDS011;58864;45.928;20.078;2023-02-12T05:26:15;30.57;;;12.50;;
71166;SDS011;58864;45.928;20.078;2023-02-12T05:28:41;27.60;;;12.27;;
71166;SDS011;58864;45.928;20.078;2023-02-12T05:31:06;30.63;;;13.02;;
71166;SDS011;58864;45.928;20.078;2023-02-12T05:33:31;32.10;;;13.33;;
71166;SDS011;58864;45.928;20.078;2023-02-12T05:36:01;29.33;;;12.48;;
71166;SDS011;58864;45.928;20.078;2023-02-12T05:38:29;29.40;;;12.75;;
71166;SDS011;58864;45.928;20.078;2023-02-12T05:40:53;33.43;;;13.03;;
71166;SDS011;58864;45.928;20.078;2023-02-12T05:43:24;33.78;;;13.88;;
71166;SDS011;58864;45.928;20.078;2023-02-12T05:45:49;36.53;;;13.97;;
71166;SDS011;58864;45.928;20.078;2023-02-12T05:48:13;32.60;;;14.07;;
71166;SDS011;58864;45.928;20.078;2023-02-12T05:50:38;32.93;;;14.27;;
71166;SDS011;58864;45.928;20.078;2023-02-12T05:53:02;39.80;;;15.47;;
71166;SDS011;58864;45.928;20.078;2023-02-12T05:55:27;46.60;;;18.00;;
71166;SDS011;58864;45.928;20.078;2023-02-12T05:57:51;57.33;;;22.60;;
71166;SDS011;58864;45.928;20.078;2023-02-12T06:00:19;71.40;;;26.27;;
71166;SDS011;58864;45.928;20.078;2023-02-12T06:02:43;57.92;;;23.27;;
71166;SDS011;58864;45.928;20.078;2023-02-12T06:05:08;49.03;;;17.97;;
71166;SDS011;58864;45.928;20.078;2023-02-12T06:07:32;45.73;;;18.80;;
71166;SDS011;58864;45.928;20.078;2023-02-12T06:09:57;40.20;;;15.83;;
71166;SDS011;58864;45.928;20.078;2023-02-12T06:12:22;40.30;;;15.68;;
71166;SDS011;58864;45.928;20.078;2023-02-12T06:14:46;43.20;;;17.17;;
71166;SDS011;58864;45.928;20.078;2023-02-12T06:17:11;40.20;;;16.30;;
71166;SDS011;58864;45.928;20.078;2023-02-12T06:19:35;36.93;;;16.53;;
71166;SDS011;58864;45.928;20.078;2023-02-12T06:22:00;46.75;;;18.38;;
71166;SDS011;58864;45.928;20.078;2023-02-12T06:24:24;48.67;;;19.40;;
71166;SDS011;58864;45.928;20.078;2023-02-12T06:26:52;44.47;;;16.60;;
71166;SDS011;58864;45.928;20.078;2023-02-12T06:29:17;47.63;;;17.92;;
71166;SDS011;58864;45.928;20.078;2023-02-12T06:31:42;43.33;;;18.05;;
71166;SDS011;58864;45.928;20.078;2023-02-12T06:34:07;46.03;;;18.00;;
71166;SDS011;58864;45.928;20.078;2023-02-12T06:36:35;58.55;;;22.35;;
71166;SDS011;58864;45.928;20.078;2023-02-12T06:39:04;56.58;;;23.05;;
71166;SDS011;58864;45.928;20.078;2023-02-12T06:41:29;50.90;;;22.08;;
71166;SDS011;58864;45.928;20.078;2023-02-12T06:43:53;55.67;;;21.53;;
71166;SDS011;58864;45.928;20.078;2023-02-12T06:46:18;79.03;;;26.17;;
71166;SDS011;58864;45.928;20.078;2023-02-12T06:48:43;75.68;;;25.23;;
71166;SDS011;58864;45.928;20.078;2023-02-12T06:51:14;73.93;;;24.77;;
71166;SDS011;58864;45.928;20.078;2023-02-12T06:53:40;62.72;;;21.73;;
71166;SDS011;58864;45.928;20.078;2023-02-12T06:56:06;51.60;;;20.33;;
71166;SDS011;58864;45.928;20.078;2023-02-12T06:58:34;48.03;;;19.67;;
71166;SDS011;58864;45.928;20.078;2023-02-12T07:01:12;50.43;;;20.43;;
71166;SDS011;58864;45.928;20.078;2023-02-12T07:03:40;47.78;;;20.08;;
71166;SDS011;58864;45.928;20.078;2023-02-12T07:06:05;44.30;;;18.83;;
71166;SDS011;58864;45.928;20.078;2023-02-12T07:08:30;46.40;;;19.90;;
71166;SDS011;58864;45.928;20.078;2023-02-12T07:10:54;43.27;;;18.67;;
71166;SDS011;58864;45.928;20.078;2023-02-12T07:13:18;50.47;;;21.03;;
71166;SDS011;58864;45.928;20.078;2023-02-12T07:15:43;58.27;;;22.03;;
71166;SDS011;58864;45.928;20.078;2023-02-12T07:18:07;70.38;;;25.65;;
71166;SDS011;58864;45.928;20.078;2023-02-12T07:20:32;79.07;;;29.60;;
71166;SDS011;58864;45.928;20.078;2023-02-12T07:22:56;58.27;;;24.43;;
71166;SDS011;58864;45.928;20.078;2023-02-12T07:25:21;58.23;;;24.20;;
71166;SDS011;58864;45.928;20.078;2023-02-12T07:27:45;52.78;;;23.42;;
71166;SDS011;58864;45.928;20.078;2023-02-12T07:30:10;51.37;;;22.50;;
71166;SDS011;58864;45.928;20.078;2023-02-12T07:32:34;83.35;;;30.80;;
71166;SDS011;58864;45.928;20.078;2023-02-12T07:34:59;79.30;;;29.07;;
71166;SDS011;58864;45.928;20.078;2023-02-12T07:37:23;83.73;;;31.53;;
71166;SDS011;58864;45.928;20.078;2023-02-12T07:39:48;72.77;;;29.47;;
71166;SDS011;58864;45.928;20.078;2023-02-12T07:42:13;69.60;;;27.17;;
71166;SDS011;58864;45.928;20.078;2023-02-12T07:44:38;59.88;;;24.85;;
71166;SDS011;58864;45.928;20.078;2023-02-12T07:47:02;60.10;;;25.87;;
71166;SDS011;58864;45.928;20.078;2023-02-12T07:49:28;61.72;;;25.98;;
71166;SDS011;58864;45.928;20.078;2023-02-12T07:51:52;58.80;;;25.43;;
71166;SDS011;58864;45.928;20.078;2023-02-12T07:54:19;67.50;;;27.42;;
71166;SDS011;58864;45.928;20.078;2023-02-12T07:56:44;68.60;;;27.37;;
71166;SDS011;58864;45.928;20.078;2023-02-12T07:59:11;77.25;;;30.38;;
71166;SDS011;58864;45.928;20.078;2023-02-12T08:01:38;70.30;;;28.08;;
71166;SDS011;58864;45.928;20.078;2023-02-12T08:04:10;60.65;;;25.05;;
71166;SDS011;58864;45.928;20.078;2023-02-12T08:06:39;56.63;;;23.70;;
71166;SDS011;58864;45.928;20.078;2023-02-12T08:09:06;53.47;;;22.57;;
71166;SDS011;58864;45.928;20.078;2023-02-12T08:11:33;47.95;;;22.05;;
71166;SDS011;58864;45.928;20.078;2023-02-12T08:13:57;57.80;;;26.98;;
71166;SDS011;58864;45.928;20.078;2023-02-12T08:16:23;54.35;;;22.77;;
71166;SDS011;58864;45.928;20.078;2023-02-12T08:18:49;44.83;;;19.97;;
71166;SDS011;58864;45.928;20.078;2023-02-12T08:21:17;57.60;;;22.48;;
71166;SDS011;58864;45.928;20.078;2023-02-12T08:23:43;62.03;;;25.00;;
71166;SDS011;58864;45.928;20.078;2023-02-12T08:28:32;55.60;;;23.67;;
71166;SDS011;58864;45.928;20.078;2023-02-12T08:31:07;47.33;;;19.63;;
71166;SDS011;58864;45.928;20.078;2023-02-12T08:33:36;46.00;;;20.80;;
71166;SDS011;58864;45.928;20.078;2023-02-12T08:36:04;44.43;;;20.57;;
71166;SDS011;58864;45.928;20.078;2023-02-12T08:38:32;47.97;;;19.77;;
71166;SDS011;58864;45.928;20.078;2023-02-12T08:41:07;48.15;;;20.88;;
71166;SDS011;58864;45.928;20.078;2023-02-12T08:43:32;52.80;;;20.50;;
71166;SDS011;58864;45.928;20.078;2023-02-12T08:46:04;49.58;;;20.40;;
71166;SDS011;58864;45.928;20.078;2023-02-12T08:48:30;47.75;;;20.45;;
71166;SDS011;58864;45.928;20.078;2023-02-12T08:50:55;45.90;;;20.05;;
71166;SDS011;58864;45.928;20.078;2023-02-12T08:53:19;45.90;;;19.20;;
71166;SDS011;58864;45.928;20.078;2023-02-12T08:55:47;80.87;;;39.20;;
71166;SDS011;58864;45.928;20.078;2023-02-12T08:58:15;51.30;;;21.70;;
71166;SDS011;58864;45.928;20.078;2023-02-12T09:00:39;66.53;;;31.97;;
71166;SDS011;58864;45.928;20.078;2023-02-12T09:03:04;42.43;;;18.80;;
71166;SDS011;58864;45.928;20.078;2023-02-12T09:05:28;43.03;;;18.23;;
71166;SDS011;58864;45.928;20.078;2023-02-12T09:07:53;46.27;;;20.23;;
71166;SDS011;58864;45.928;20.078;2023-02-12T09:10:17;51.60;;;23.65;;
71166;SDS011;58864;45.928;20.078;2023-02-12T09:12:42;47.53;;;18.53;;
71166;SDS011;58864;45.928;20.078;2023-02-12T09:15:06;62.40;;;23.13;;
71166;SDS011;58864;45.928;20.078;2023-02-12T09:17:31;50.20;;;21.90;;
71166;SDS011;58864;45.928;20.078;2023-02-12T09:19:55;53.97;;;20.07;;
71166;SDS011;58864;45.928;20.078;2023-02-12T09:22:20;64.70;;;22.90;;
71166;SDS011;58864;45.928;20.078;2023-02-12T09:24:44;66.97;;;22.03;;
71166;SDS011;58864;45.928;20.078;2023-02-12T09:27:09;87.43;;;28.37;;
71166;SDS011;58864;45.928;20.078;2023-02-12T09:29:33;67.33;;;24.77;;
71166;SDS011;58864;45.928;20.078;2023-02-12T09:31:58;63.70;;;27.70;;
71166;SDS011;58864;45.928;20.078;2023-02-12T09:34:24;75.37;;;28.97;;
71166;SDS011;58864;45.928;20.078;2023-02-12T09:36:48;83.47;;;29.15;;
71166;SDS011;58864;45.928;20.078;2023-02-12T09:39:13;84.20;;;30.43;;
71166;SDS011;58864;45.928;20.078;2023-02-12T09:44:33;65.82;;;25.50;;
71166;SDS011;58864;45.928;20.078;2023-02-12T09:52:29;46.50;;;21.37;;
71166;SDS011;58864;45.928;20.078;2023-02-12T09:54:54;66.30;;;26.70;;
71166;SDS011;58864;45.928;20.078;2023-02-12T09:57:22;76.57;;;28.45;;
71166;SDS011;58864;45.928;20.078;2023-02-12T10:00:04;89.90;;;32.95;;
71166;SDS011;58864;45.928;20.078;2023-02-12T10:02:34;75.43;;;30.60;;
71166;SDS011;58864;45.928;20.078;2023-02-12T10:04:59;57.75;;;24.80;;
71166;SDS011;58864;45.928;20.078;2023-02-12T10:12:38;42.58;;;19.30;;
71166;SDS011;58864;45.928;20.078;2023-02-12T10:26:21;52.55;;;23.85;;
71166;SDS011;58864;45.928;20.078;2023-02-12T10:28:49;48.38;;;20.23;;
71166;SDS011;58864;45.928;20.078;2023-02-12T10:31:34;54.08;;;23.95;;
71166;SDS011;58864;45.928;20.078;2023-02-12T10:34:00;47.90;;;21.83;;
71166;SDS011;58864;45.928;20.078;2023-02-12T10:36:37;42.20;;;19.70;;
71166;SDS011;58864;45.928;20.078;2023-02-12T10:39:13;49.42;;;24.08;;
71166;SDS011;58864;45.928;20.078;2023-02-12T10:41:49;52.15;;;22.83;;
71166;SDS011;58864;45.928;20.078;2023-02-12T10:44:18;41.50;;;18.08;;
71166;SDS011;58864;45.928;20.078;2023-02-12T10:46:42;53.97;;;24.17;;
71166;SDS011;58864;45.928;20.078;2023-02-12T10:49:09;48.92;;;23.80;;
71166;SDS011;58864;45.928;20.078;2023-02-12T10:56:58;52.40;;;21.48;;
71166;SDS011;58864;45.928;20.078;2023-02-12T10:59:26;58.90;;;25.52;;
71166;SDS011;58864;45.928;20.078;2023-02-12T11:01:52;53.72;;;22.30;;
71166;SDS011;58864;45.928;20.078;2023-02-12T11:04:22;59.40;;;26.57;;
71166;SDS011;58864;45.928;20.078;2023-02-12T11:07:12;50.95;;;23.70;;
71166;SDS011;58864;45.928;20.078;2023-02-12T11:09:47;46.72;;;21.42;;
71166;SDS011;58864;45.928;20.078;2023-02-12T11:14:59;43.80;;;19.95;;
71166;SDS011;58864;45.928;20.078;2023-02-12T11:17:33;44.63;;;20.02;;
71166;SDS011;58864;45.928;20.078;2023-02-12T11:22:30;39.42;;;18.95;;
71166;SDS011;58864;45.928;20.078;2023-02-12T11:25:01;44.73;;;20.83;;
71166;SDS011;58864;45.928;20.078;2023-02-12T11:27:31;42.53;;;19.80;;
71166;SDS011;58864;45.928;20.078;2023-02-12T11:30:18;46.92;;;20.38;;
71166;SDS011;58864;45.928;20.078;2023-02-12T11:32:44;44.30;;;19.98;;
71166;SDS011;58864;45.928;20.078;2023-02-12T11:35:14;41.17;;;18.67;;
71166;SDS011;58864;45.928;20.078;2023-02-12T11:37:51;47.50;;;19.08;;
71166;SDS011;58864;45.928;20.078;2023-02-12T11:40:21;45.05;;;20.15;;
71166;SDS011;58864;45.928;20.078;2023-02-12T11:42:57;49.85;;;20.17;;
71166;SDS011;58864;45.928;20.078;2023-02-12T11:48:26;39.90;;;18.40;;
71166;SDS011;58864;45.928;20.078;2023-02-12T11:50:54;44.03;;;19.60;;
71166;SDS011;58864;45.928;20.078;2023-02-12T11:53:25;38.25;;;17.80;;
71166;SDS011;58864;45.928;20.078;2023-02-12T11:56:01;43.75;;;19.63;;
71166;SDS011;58864;45.928;20.078;2023-02-12T11:58:28;38.80;;;17.95;;
71166;SDS011;58864;45.928;20.078;2023-02-12T12:06:20;37.75;;;16.83;;
71166;SDS011;58864;45.928;20.078;2023-02-12T12:09:09;34.30;;;16.02;;
71166;SDS011;58864;45.928;20.078;2023-02-12T12:17:27;31.65;;;14.70;;
71166;SDS011;58864;45.928;20.078;2023-02-12T12:20:28;36.67;;;18.38;;
71166;SDS011;58864;45.928;20.078;2023-02-12T12:22:59;31.23;;;16.65;;
71166;SDS011;58864;45.928;20.078;2023-02-12T12:25:48;31.42;;;17.15;;
71166;SDS011;58864;45.928;20.078;2023-02-12T12:34:38;95.80;;;37.33;;
71166;SDS011;58864;45.928;20.078;2023-02-12T13:01:20;41.60;;;18.85;;
71166;SDS011;58864;45.928;20.078;2023-02-12T13:12:35;39.47;;;17.08;;
71166;SDS011;58864;45.928;20.078;2023-02-12T13:23:24;28.83;;;14.18;;
71166;SDS011;58864;45.928;20.078;2023-02-12T13:28:36;32.33;;;15.93;;
71166;SDS011;58864;45.928;20.078;2023-02-12T13:31:03;32.72;;;15.18;;
71166;SDS011;58864;45.928;20.078;2023-02-12T13:33:48;32.00;;;14.45;;
71166;SDS011;58864;45.928;20.078;2023-02-12T13:36:14;27.83;;;13.70;;
71166;SDS011;58864;45.928;20.078;2023-02-12T13:38:42;29.13;;;14.97;;
71166;SDS011;58864;45.928;20.078;2023-02-12T13:41:19;27.77;;;13.82;;
71166;SDS011;58864;45.928;20.078;2023-02-12T13:43:47;22.38;;;11.05;;
71166;SDS011;58864;45.928;20.078;2023-02-12T13:48:43;29.23;;;14.10;;
71166;SDS011;58864;45.928;20.078;2023-02-12T13:56:52;30.70;;;12.60;;
71166;SDS011;58864;45.928;20.078;2023-02-12T14:01:57;20.85;;;10.10;;
71166;SDS011;58864;45.928;20.078;2023-02-12T14:10:29;34.00;;;14.40;;
71166;SDS011;58864;45.928;20.078;2023-02-12T14:15:36;26.75;;;12.18;;
71166;SDS011;58864;45.928;20.078;2023-02-12T14:20:47;26.85;;;12.70;;
71166;SDS011;58864;45.928;20.078;2023-02-12T14:28:48;30.52;;;13.50;;
71166;SDS011;58864;45.928;20.078;2023-02-12T14:33:44;27.98;;;12.95;;
71166;SDS011;58864;45.928;20.078;2023-02-12T14:38:57;30.95;;;14.30;;
71166;SDS011;58864;45.928;20.078;2023-02-12T14:41:26;30.77;;;14.73;;
71166;SDS011;58864;45.928;20.078;2023-02-12T14:46:51;34.53;;;16.27;;
71166;SDS011;58864;45.928;20.078;2023-02-12T14:49:44;33.37;;;16.03;;
71166;SDS011;58864;45.928;20.078;2023-02-12T14:59:49;33.17;;;16.35;;
71166;SDS011;58864;45.928;20.078;2023-02-12T15:02:20;35.60;;;16.87;;
71166;SDS011;58864;45.928;20.078;2023-02-12T15:04:49;33.53;;;15.60;;
71166;SDS011;58864;45.928;20.078;2023-02-12T15:07:16;32.00;;;16.13;;
71166;SDS011;58864;45.928;20.078;2023-02-12T15:09:50;27.70;;;13.20;;
71166;SDS011;58864;45.928;20.078;2023-02-12T15:12:19;29.42;;;13.80;;
71166;SDS011;58864;45.928;20.078;2023-02-12T15:14:47;26.93;;;12.90;;
71166;SDS011;58864;45.928;20.078;2023-02-12T15:17:19;29.92;;;13.57;;
71166;SDS011;58864;45.928;20.078;2023-02-12T15:19:56;33.63;;;14.85;;
71166;SDS011;58864;45.928;20.078;2023-02-12T15:22:29;31.80;;;15.02;;
71166;SDS011;58864;45.928;20.078;2023-02-12T15:27:59;34.83;;;14.93;;
71166;SDS011;58864;45.928;20.078;2023-02-12T15:30:27;36.45;;;16.02;;
71166;SDS011;58864;45.928;20.078;2023-02-12T15:32:57;27.25;;;13.43;;
71166;SDS011;58864;45.928;20.078;2023-02-12T15:35:25;28.35;;;12.55;;
71166;SDS011;58864;45.928;20.078;2023-02-12T15:37:52;30.48;;;13.23;;
71166;SDS011;58864;45.928;20.078;2023-02-12T15:40:18;32.30;;;14.73;;
71166;SDS011;58864;45.928;20.078;2023-02-12T15:43:16;33.97;;;14.88;;
71166;SDS011;58864;45.928;20.078;2023-02-12T15:45:48;35.88;;;15.27;;
71166;SDS011;58864;45.928;20.078;2023-02-12T15:48:18;34.85;;;15.30;;
71166;SDS011;58864;45.928;20.078;2023-02-12T15:50:51;27.20;;;13.15;;
71166;SDS011;58864;45.928;20.078;2023-02-12T15:53:16;32.10;;;13.83;;
71166;SDS011;58864;45.928;20.078;2023-02-12T15:55:42;44.35;;;18.58;;
71166;SDS011;58864;45.928;20.078;2023-02-12T15:58:22;35.20;;;15.55;;
71166;SDS011;58864;45.928;20.078;2023-02-12T16:01:22;46.28;;;20.10;;
71166;SDS011;58864;45.928;20.078;2023-02-12T16:03:52;43.17;;;18.23;;
71166;SDS011;58864;45.928;20.078;2023-02-12T16:06:19;40.60;;;18.08;;
71166;SDS011;58864;45.928;20.078;2023-02-12T16:11:27;46.95;;;20.25;;
71166;SDS011;58864;45.928;20.078;2023-02-12T16:13:57;52.92;;;21.58;;
71166;SDS011;58864;45.928;20.078;2023-02-12T16:16:24;62.10;;;28.17;;
71166;SDS011;58864;45.928;20.078;2023-02-12T16:19:03;57.13;;;23.45;;
71166;SDS011;58864;45.928;20.078;2023-02-12T16:21:29;59.00;;;27.35;;
71166;SDS011;58864;45.928;20.078;2023-02-12T16:23:54;55.70;;;24.73;;
71166;SDS011;58864;45.928;20.078;2023-02-12T16:26:19;59.23;;;27.10;;
71166;SDS011;58864;45.928;20.078;2023-02-12T16:28:46;56.67;;;26.48;;
71166;SDS011;58864;45.928;20.078;2023-02-12T16:31:12;71.65;;;33.08;;
71166;SDS011;58864;45.928;20.078;2023-02-12T16:38:48;47.90;;;20.83;;
71166;SDS011;58864;45.928;20.078;2023-02-12T16:41:27;36.70;;;16.40;;
71166;SDS011;58864;45.928;20.078;2023-02-12T16:46:22;49.63;;;21.33;;
71166;SDS011;58864;45.928;20.078;2023-02-12T16:48:47;35.33;;;17.45;;
71166;SDS011;58864;45.928;20.078;2023-02-12T16:51:22;48.73;;;21.30;;
71166;SDS011;58864;45.928;20.078;2023-02-12T16:53:50;92.57;;;36.22;;
71166;SDS011;58864;45.928;20.078;2023-02-12T16:56:17;73.97;;;30.38;;
71166;SDS011;58864;45.928;20.078;2023-02-12T16:58:44;170.82;;;57.67;;
71166;SDS011;58864;45.928;20.078;2023-02-12T17:01:09;300.25;;;101.88;;
71166;SDS011;58864;45.928;20.078;2023-02-12T17:03:39;649.97;;;240.83;;
71166;SDS011;58864;45.928;20.078;2023-02-12T17:06:03;403.35;;;134.45;;
71166;SDS011;58864;45.928;20.078;2023-02-12T17:08:28;256.17;;;84.00;;
71166;SDS011;58864;45.928;20.078;2023-02-12T17:10:52;187.77;;;63.23;;
71166;SDS011;58864;45.928;20.078;2023-02-12T17:13:17;113.85;;;41.05;;
71166;SDS011;58864;45.928;20.078;2023-02-12T17:18:16;134.17;;;44.13;;
71166;SDS011;58864;45.928;20.078;2023-02-12T17:20:40;104.38;;;37.85;;
71166;SDS011;58864;45.928;20.078;2023-02-12T17:23:05;79.87;;;31.27;;
71166;SDS011;58864;45.928;20.078;2023-02-12T17:25:32;66.60;;;25.30;;
71166;SDS011;58864;45.928;20.078;2023-02-12T17:27:58;53.72;;;20.17;;
71166;SDS011;58864;45.928;20.078;2023-02-12T17:30:23;45.10;;;18.53;;
71166;SDS011;58864;45.928;20.078;2023-02-12T17:32:49;51.33;;;19.42;;
71166;SDS011;58864;45.928;20.078;2023-02-12T17:35:13;56.57;;;23.27;;